Time;durP1;ratioP1;P1;durP2;ratioP2;P2;SDS_P1;SDS_P2;PMS_P1;PMS_P2;Temp;Humidity;BMP_temperature;BMP_pressure;BME280_temperature;BME280_humidity;BME280_pressure;Samples;Min_cycle;Max_cycle;Signal;HPM_P1;HPM_P2
2022/07/10 00:02:19;;;;;;;5.83;5.23;;;;;;;21.76;63.42;99122.66;5060693;28;20191;-66
2022/07/10 00:04:46;;;;;;;6.93;6.30;;;;;;;21.71;63.55;99114.97;5061655;28;20609;-65
2022/07/10 00:07:13;;;;;;;6.90;6.37;;;;;;;21.73;63.54;99118.38;5062447;28;20192;-65
2022/07/10 00:09:40;;;;;;;7.03;6.33;;;;;;;21.72;63.47;99113.22;5060729;28;20595;-66
2022/07/10 00:12:08;;;;;;;6.80;6.23;;;;;;;21.71;63.97;99114.13;5065963;28;20249;-64
2022/07/10 00:14:36;;;;;;;7.20;6.50;;;;;;;21.66;63.88;99118.66;5068442;28;20199;-66
2022/07/10 00:17:03;;;;;;;6.33;5.83;;;;;;;21.62;63.91;99107.44;5070811;28;20438;-66
2022/07/10 00:19:30;;;;;;;6.70;6.20;;;;;;;21.59;64.28;99111.94;5070358;28;20446;-66
2022/07/10 00:21:56;;;;;;;6.63;6.03;;;;;;;21.61;64.00;99107.50;5071331;28;20191;-65
2022/07/10 00:24:23;;;;;;;6.30;5.83;;;;;;;21.62;64.04;99098.72;5071320;28;20227;-66
2022/07/10 00:26:50;;;;;;;6.63;6.17;;;;;;;21.64;64.10;99110.03;5071392;28;20215;-66
2022/07/10 00:29:17;;;;;;;6.67;6.10;;;;;;;21.58;64.10;99100.63;5071385;28;20202;-66
2022/07/10 00:31:45;;;;;;;8.67;6.67;;;;;;;21.57;64.20;99103.28;5070953;28;20195;-65
2022/07/10 00:34:12;;;;;;;7.07;6.10;;;;;;;21.53;64.10;99092.09;5070978;28;20600;-64
2022/07/10 00:36:39;;;;;;;6.20;5.80;;;;;;;21.47;64.48;99092.28;5069720;28;20586;-65
2022/07/10 00:39:06;;;;;;;7.27;6.57;;;;;;;21.54;63.95;99095.53;5071372;28;20206;-66
2022/07/10 00:41:33;;;;;;;7.60;6.73;;;;;;;21.49;63.95;99085.25;5070733;28;20199;-66
2022/07/10 00:44:02;;;;;;;6.47;5.97;;;;;;;21.51;63.79;99087.78;5070782;28;20199;-65
2022/07/10 00:46:30;;;;;;;6.87;6.37;;;;;;;21.56;63.59;99089.34;5070738;28;20469;-66
2022/07/10 00:48:59;;;;;;;7.03;6.37;;;;;;;21.61;63.26;99078.75;5056058;28;20287;-66
2022/07/10 00:51:28;;;;;;;5.93;5.53;;;;;;;21.64;63.02;99081.25;5063945;28;20200;-64
2022/07/10 00:53:57;;;;;;;6.90;6.30;;;;;;;21.67;62.65;99070.69;5070696;28;20213;-65
2022/07/10 00:56:26;;;;;;;10.33;6.23;;;;;;;21.67;62.18;99074.13;5070954;28;20203;-65
2022/07/10 00:58:53;;;;;;;7.17;6.57;;;;;;;21.61;62.18;99063.06;5071036;28;20191;-65
2022/07/10 01:01:19;;;;;;;7.50;6.80;;;;;;;21.61;62.17;99079.59;5070565;28;20445;-65
2022/07/10 01:03:47;;;;;;;6.60;6.00;;;;;;;21.67;61.95;99066.28;5070633;28;20195;-66
2022/07/10 01:06:16;;;;;;;6.73;6.20;;;;;;;21.68;61.93;99068.00;5070827;28;20215;-65
2022/07/10 01:08:44;;;;;;;7.60;6.00;;;;;;;21.67;61.44;99070.69;5070625;28;20203;-64
2022/07/10 01:11:11;;;;;;;6.87;6.37;;;;;;;21.69;61.64;99071.47;5070794;28;20577;-64
2022/07/10 01:13:38;;;;;;;8.53;6.73;;;;;;;21.70;61.27;99067.94;5070735;28;20582;-64
2022/07/10 01:16:05;;;;;;;7.17;6.53;;;;;;;21.66;61.56;99062.00;5070582;28;20659;-66
2022/07/10 01:18:32;;;;;;;7.20;6.60;;;;;;;21.69;61.24;99069.72;5070655;28;20195;-65
2022/07/10 01:21:00;;;;;;;8.30;6.33;;;;;;;21.64;61.34;99066.44;5070550;28;20195;-65
2022/07/10 01:23:27;;;;;;;6.97;6.27;;;;;;;21.69;61.10;99066.25;5070303;28;20232;-64
2022/07/10 01:25:54;;;;;;;7.47;6.87;;;;;;;21.71;61.31;99072.28;5070219;28;20223;-65
2022/07/10 01:28:22;;;;;;;7.50;6.90;;;;;;;21.81;60.77;99076.25;5058696;28;20196;-65
2022/07/10 01:30:49;;;;;;;8.30;7.50;;;;;;;21.85;60.56;99075.25;5053379;28;20462;-57
2022/07/10 01:33:17;;;;;;;7.83;7.23;;;;;;;21.82;60.68;99069.28;5063352;28;20495;-65
2022/07/10 01:35:44;;;;;;;8.30;7.50;;;;;;;21.80;60.62;99065.88;5064106;28;20188;-67
2022/07/10 01:38:12;;;;;;;8.67;7.87;;;;;;;21.76;60.80;99058.13;5061760;28;20196;-59
2022/07/10 01:40:39;;;;;;;8.13;7.43;;;;;;;21.78;60.92;99065.94;5059913;28;20188;-58
2022/07/10 01:43:06;;;;;;;8.10;7.40;;;;;;;21.77;60.78;99056.38;5059724;28;20666;-58
2022/07/10 01:45:35;;;;;;;7.57;6.87;;;;;;;21.73;60.91;99055.63;5058847;28;20240;-58
2022/07/10 01:48:02;;;;;;;8.03;7.27;;;;;;;21.70;60.93;99047.03;5059889;28;20195;-58
2022/07/10 01:50:28;;;;;;;7.60;7.00;;;;;;;21.66;60.95;99048.06;5060403;28;20187;-58
2022/07/10 01:52:55;;;;;;;7.63;6.97;;;;;;;21.63;61.20;99045.53;5066835;28;20195;-58
2022/07/10 01:55:23;;;;;;;7.27;6.67;;;;;;;21.69;60.77;99047.94;5069218;28;20195;-58
2022/07/10 01:57:50;;;;;;;6.73;6.23;;;;;;;21.64;60.96;99042.03;5069834;28;20188;-58
2022/07/10 02:00:17;;;;;;;7.63;7.00;;;;;;;21.68;60.44;99043.63;5070078;28;20195;-58
2022/07/10 02:04:40;;;;;;;7.20;6.50;;;;;;;21.64;61.06;99037.66;5069983;28;20199;-58
2022/07/10 02:05:31;;;;;;;7.57;6.87;;;;;;;21.66;60.95;99029.75;5069918;28;20579;-58
2022/07/10 02:07:58;;;;;;;6.93;6.27;;;;;;;21.60;60.87;99033.44;5069136;28;20567;-58
2022/07/10 02:10:27;;;;;;;7.37;6.77;;;;;;;21.58;60.94;99032.66;5069901;28;20195;-58
2022/07/10 02:12:53;;;;;;;7.30;6.47;;;;;;;21.55;61.22;99043.22;5070068;28;20199;-59
2022/07/10 02:15:20;;;;;;;7.63;7.03;;;;;;;21.46;61.18;99042.66;5069876;28;20198;-58
2022/07/10 02:17:47;;;;;;;7.40;6.83;;;;;;;21.33;61.66;99039.63;5070191;28;20214;-59
2022/07/10 02:20:14;;;;;;;7.50;6.90;;;;;;;21.29;61.99;99045.84;5069853;28;20192;-58
2022/07/10 02:22:41;;;;;;;8.03;7.37;;;;;;;21.24;62.34;99046.91;5069795;28;20223;-58
2022/07/10 02:25:08;;;;;;;6.97;6.47;;;;;;;21.21;62.23;99039.19;5069882;28;20188;-58
2022/07/10 02:27:37;;;;;;;7.50;6.77;;;;;;;21.13;62.62;99034.22;5069917;28;20219;-57
2022/07/10 02:30:04;;;;;;;7.20;6.60;;;;;;;21.03;63.06;99035.41;5070052;28;21032;-58
2022/07/10 02:32:31;;;;;;;7.30;6.70;;;;;;;21.03;63.17;99044.09;5069902;28;20187;-58
2022/07/10 02:34:57;;;;;;;7.57;6.80;;;;;;;21.00;62.86;99040.72;5069951;28;20191;-57
2022/07/10 02:37:25;;;;;;;7.17;6.63;;;;;;;20.99;62.94;99041.63;5069966;28;20548;-58
2022/07/10 02:39:51;;;;;;;7.27;6.77;;;;;;;20.94;63.01;99036.56;5070148;28;20191;-57
2022/07/10 02:42:18;;;;;;;7.50;6.80;;;;;;;20.86;63.17;99035.97;5069749;28;20511;-58
2022/07/10 02:44:46;;;;;;;7.40;6.73;;;;;;;20.81;63.23;99030.03;5069720;28;20677;-59
2022/07/10 02:47:13;;;;;;;7.20;6.60;;;;;;;20.83;62.93;99036.06;5070134;28;20219;-58
2022/07/10 02:49:40;;;;;;;7.27;6.57;;;;;;;20.82;63.06;99042.16;5070125;28;20191;-58
2022/07/10 02:52:07;;;;;;;7.73;7.00;;;;;;;20.83;62.81;99040.41;5070018;28;20196;-58
2022/07/10 02:54:34;;;;;;;9.40;7.53;;;;;;;20.73;63.18;99039.88;5069791;28;20191;-58
2022/07/10 02:57:01;;;;;;;8.37;6.77;;;;;;;20.75;63.08;99048.50;5069797;28;20187;-58
2022/07/10 02:59:28;;;;;;;6.97;6.40;;;;;;;20.76;63.14;99039.78;5069751;28;20211;-59
2022/07/10 03:01:56;;;;;;;8.05;7.25;;;;;;;20.78;62.91;99037.97;5069344;28;20434;-58
2022/07/10 03:04:23;;;;;;;8.03;7.43;;;;;;;20.87;62.77;99049.88;5069843;28;20286;-58
2022/07/10 03:06:50;;;;;;;8.33;6.77;;;;;;;20.85;62.76;99057.75;5072877;28;20223;-58
2022/07/10 03:09:17;;;;;;;7.30;6.70;;;;;;;20.87;62.90;99062.94;5073301;28;20203;-59
2022/07/10 03:11:44;;;;;;;7.13;6.53;;;;;;;20.87;62.74;99057.72;5073240;28;20195;-58
2022/07/10 03:14:10;;;;;;;7.30;6.70;;;;;;;20.82;63.12;99059.63;5073132;28;20937;-58
2022/07/10 03:16:37;;;;;;;8.25;7.55;;;;;;;20.82;63.49;99055.22;5072897;28;20448;-56
2022/07/10 03:19:05;;;;;;;8.20;7.50;;;;;;;20.87;63.35;99050.75;5073347;28;20192;-58
2022/07/10 03:21:32;;;;;;;8.33;7.63;;;;;;;20.88;63.23;99059.41;5073250;28;20282;-57
2022/07/10 03:23:59;;;;;;;7.90;7.30;;;;;;;20.77;63.69;99058.88;5072820;28;20638;-57
2022/07/10 03:26:26;;;;;;;8.73;7.93;;;;;;;20.80;63.66;99061.41;5072958;28;20300;-58
2022/07/10 03:28:53;;;;;;;8.73;7.97;;;;;;;20.72;63.93;99053.81;5072780;28;20191;-58
2022/07/10 03:31:20;;;;;;;9.57;8.57;;;;;;;20.71;64.46;99051.28;5072941;28;20195;-57
2022/07/10 03:33:46;;;;;;;9.17;8.40;;;;;;;20.70;64.50;99041.72;5072918;28;20196;-57
2022/07/10 03:36:15;;;;;;;8.43;7.83;;;;;;;20.73;64.85;99044.25;5073011;28;20202;-57
2022/07/10 03:38:41;;;;;;;8.87;8.13;;;;;;;20.73;64.66;99029.44;5072652;28;20191;-57
2022/07/10 03:41:09;;;;;;;9.17;8.27;;;;;;;20.78;64.61;99042.34;5072681;28;20184;-58
2022/07/10 03:43:35;;;;;;;9.10;8.33;;;;;;;20.69;65.08;99032.16;5072548;28;20191;-57
2022/07/10 03:46:02;;;;;;;9.97;9.07;;;;;;;20.72;65.38;99029.47;5072574;28;20751;-58
2022/07/10 03:48:29;;;;;;;10.20;9.30;;;;;;;20.44;65.82;98987.72;5071840;28;20437;-57
2022/07/10 03:50:56;;;;;;;10.17;9.17;;;;;;;20.83;65.33;99019.53;5072733;28;20196;-57
2022/07/10 03:53:24;;;;;;;9.60;8.90;;;;;;;20.78;65.50;99032.75;5072713;28;20195;-58
2022/07/10 03:55:51;;;;;;;14.63;9.77;;;;;;;20.74;65.99;99020.69;5072579;28;20218;-58
2022/07/10 03:58:16;;;;;;;11.17;10.07;;;;;;;20.79;66.04;99028.38;5072358;28;20206;-58
2022/07/10 04:00:43;;;;;;;11.27;10.20;;;;;;;20.81;65.99;99031.78;5072540;28;20195;-58
2022/07/10 04:03:10;;;;;;;10.85;9.95;;;;;;;20.83;65.99;99028.22;5071606;28;20452;-58
2022/07/10 04:05:37;;;;;;;10.67;9.77;;;;;;;20.93;65.33;99036.63;5072366;28;20195;-58
2022/07/10 04:08:05;;;;;;;10.10;9.30;;;;;;;20.88;65.08;99039.38;5071267;28;20211;-58
2022/07/10 04:10:33;;;;;;;9.90;9.10;;;;;;;20.97;65.13;99039.06;5072358;28;20716;-58
2022/07/10 04:13:00;;;;;;;9.60;8.90;;;;;;;20.96;64.83;99041.72;5071682;28;20208;-58
2022/07/10 04:15:27;;;;;;;10.30;9.50;;;;;;;21.12;64.82;99035.16;5072117;28;20191;-57
2022/07/10 04:17:54;;;;;;;10.13;9.33;;;;;;;21.18;64.46;99034.91;5071377;28;20226;-58
2022/07/10 04:20:22;;;;;;;10.57;9.60;;;;;;;21.20;64.68;99030.50;5070730;28;20688;-57
2022/07/10 04:22:49;;;;;;;9.87;9.17;;;;;;;21.24;64.11;99032.09;5069089;28;20251;-57
2022/07/10 04:25:15;;;;;;;12.87;9.73;;;;;;;21.25;64.19;99027.72;5065907;28;20570;-57
2022/07/10 04:27:44;;;;;;;10.03;9.23;;;;;;;21.21;63.98;99034.81;5060285;28;20216;-58
2022/07/10 04:30:11;;;;;;;9.53;8.83;;;;;;;21.22;64.09;99031.31;5061546;28;20196;-58
2022/07/10 04:32:38;;;;;;;10.48;9.55;;;;;;;21.29;64.20;99019.72;5061647;28;20439;-58
2022/07/10 04:35:05;;;;;;;12.60;9.33;;;;;;;21.50;62.96;99015.53;5062805;28;20666;-58
2022/07/10 04:37:34;;;;;;;8.87;8.17;;;;;;;21.49;62.90;99022.50;5069318;28;20198;-58
2022/07/10 04:40:01;;;;;;;10.63;9.13;;;;;;;21.53;62.75;99026.72;5066896;28;20188;-58
2022/07/10 04:42:28;;;;;;;9.20;8.50;;;;;;;21.54;62.54;99038.88;5064238;28;20279;-58
2022/07/10 04:44:56;;;;;;;8.80;8.10;;;;;;;21.57;62.73;99041.38;5062773;28;20192;-58
2022/07/10 04:47:23;;;;;;;9.88;8.90;;;;;;;21.54;62.22;99044.09;5070819;28;20449;-58
2022/07/10 04:49:50;;;;;;;9.17;8.37;;;;;;;21.43;62.39;99048.84;5071216;28;20562;-58
2022/07/10 04:52:17;;;;;;;9.20;8.50;;;;;;;21.41;62.86;99053.28;5070698;28;20210;-58
2022/07/10 04:54:44;;;;;;;8.70;8.00;;;;;;;21.49;62.75;99053.88;5070417;28;20570;-58
2022/07/10 04:57:10;;;;;;;9.83;8.43;;;;;;;21.53;62.74;99050.25;5061498;28;20257;-58
2022/07/10 04:59:37;;;;;;;9.70;8.80;;;;;;;21.55;62.76;99048.44;5060304;28;20184;-58
2022/07/10 05:02:07;;;;;;;9.87;9.07;;;;;;;21.53;62.99;99046.78;5060291;28;20192;-58
2022/07/10 05:04:33;;;;;;;9.93;8.87;;;;;;;21.49;62.99;99047.78;5061400;28;20278;-58
2022/07/10 05:07:00;;;;;;;9.93;9.00;;;;;;;21.65;62.95;99052.44;5059696;28;20204;-58
2022/07/10 05:09:27;;;;;;;11.33;9.37;;;;;;;21.73;62.50;99052.16;5061401;28;20188;-58
2022/07/10 05:11:54;;;;;;;9.77;8.67;;;;;;;21.82;62.11;99058.81;5061521;28;20183;-58
2022/07/10 05:14:21;;;;;;;9.97;9.07;;;;;;;22.02;61.79;99056.38;5061210;28;20199;-58
2022/07/10 05:16:48;;;;;;;9.90;8.90;;;;;;;22.04;61.97;99063.25;5064021;28;20191;-58
2022/07/10 05:19:16;;;;;;;10.02;9.18;;;;;;;22.18;61.94;99058.34;5058591;28;20508;-57
2022/07/10 05:21:43;;;;;;;9.83;9.13;;;;;;;22.44;60.74;99056.50;5066476;28;20202;-58
2022/07/10 05:24:10;;;;;;;9.83;9.03;;;;;;;22.53;60.22;99064.84;5067946;28;20223;-58
2022/07/10 05:26:37;;;;;;;10.17;9.27;;;;;;;22.58;60.74;99052.41;5062398;28;20197;-57
2022/07/10 05:29:04;;;;;;;10.33;9.13;;;;;;;22.57;60.34;99048.13;5058959;28;20242;-57
2022/07/10 05:31:31;;;;;;;9.60;8.80;;;;;;;22.72;59.74;99059.75;5059637;28;20187;-57
2022/07/10 05:33:57;;;;;;;9.50;8.70;;;;;;;22.92;59.66;99057.22;5061116;28;20191;-57
2022/07/10 05:36:26;;;;;;;10.27;9.10;;;;;;;23.02;59.43;99062.94;5059478;28;20250;-58
2022/07/10 05:38:53;;;;;;;9.93;9.03;;;;;;;23.12;58.48;99048.53;5065119;28;20195;-58
2022/07/10 05:41:20;;;;;;;9.90;9.10;;;;;;;23.12;58.66;99048.53;5062284;28;20205;-57
2022/07/10 05:43:46;;;;;;;10.23;9.20;;;;;;;23.41;58.28;99048.19;5058162;28;20199;-58
2022/07/10 05:46:13;;;;;;;10.20;9.30;;;;;;;23.55;58.15;99053.69;5064103;28;20646;-57
2022/07/10 05:48:40;;;;;;;9.77;8.97;;;;;;;23.71;56.88;99069.59;5070222;28;20234;-57
2022/07/10 05:51:07;;;;;;;10.10;9.20;;;;;;;23.82;57.33;99060.34;5053971;28;20269;-58
2022/07/10 05:53:35;;;;;;;9.87;9.07;;;;;;;24.02;55.87;99051.59;5050705;28;20211;-57
2022/07/10 05:56:02;;;;;;;10.00;9.00;;;;;;;24.07;55.82;99046.97;5050248;28;20633;-58
2022/07/10 05:58:30;;;;;;;8.80;8.17;;;;;;;24.23;56.01;99053.25;5057897;28;20204;-58
2022/07/10 06:00:57;;;;;;;9.70;8.70;;;;;;;24.30;55.12;99057.31;5050147;28;20257;-58
2022/07/10 06:03:24;;;;;;;9.70;8.90;;;;;;;24.02;54.99;99043.72;5064547;28;20812;-58
2022/07/10 06:05:51;;;;;;;8.77;8.07;;;;;;;24.07;55.52;99060.09;5070360;28;20232;-58
2022/07/10 06:08:17;;;;;;;9.18;8.38;;;;;;;24.08;55.32;99057.44;5068756;28;20446;-59
2022/07/10 06:10:46;;;;;;;9.73;8.93;;;;;;;24.29;54.88;99060.84;5070001;28;20198;-58
2022/07/10 06:13:13;;;;;;;9.30;8.40;;;;;;;24.23;55.32;99055.88;5069836;28;20191;-57
2022/07/10 06:15:40;;;;;;;9.13;8.33;;;;;;;24.21;55.20;99056.88;5070204;28;20202;-57
2022/07/10 06:18:07;;;;;;;9.70;9.00;;;;;;;24.23;55.61;99062.94;5070020;28;20286;-58
2022/07/10 06:20:34;;;;;;;9.87;9.07;;;;;;;24.34;55.60;99063.25;5069994;28;20202;-58
2022/07/10 06:23:00;;;;;;;9.30;8.50;;;;;;;24.34;55.19;99061.50;5065535;28;20454;-58
2022/07/10 06:25:27;;;;;;;9.70;8.97;;;;;;;24.36;55.61;99057.03;5057429;28;20571;-59
2022/07/10 06:27:55;;;;;;;9.47;8.67;;;;;;;24.50;54.66;99053.75;5069854;28;20227;-58
2022/07/10 06:30:22;;;;;;;9.33;8.43;;;;;;;24.63;53.96;99055.75;5065975;28;20199;-58
2022/07/10 06:32:49;;;;;;;9.60;8.80;;;;;;;24.50;54.31;99056.41;5068100;28;20701;-58
2022/07/10 06:35:16;;;;;;;9.57;8.80;;;;;;;24.48;54.72;99053.81;5069740;28;20207;-58
2022/07/10 06:37:43;;;;;;;9.03;8.17;;;;;;;24.45;54.39;99053.09;5069506;28;20237;-58
2022/07/10 06:40:13;;;;;;;9.63;8.83;;;;;;;24.60;54.10;99055.88;5056068;28;20208;-58
2022/07/10 06:42:40;;;;;;;9.70;8.77;;;;;;;24.76;54.17;99056.00;5053865;28;20234;-58
2022/07/10 06:45:10;;;;;;;9.23;8.53;;;;;;;24.88;53.59;99055.44;5053803;28;20583;-59
2022/07/10 06:50:21;;;;;;;11.73;8.57;;;;;;;25.18;53.23;99067.06;5053421;28;20216;-58
2022/07/10 06:52:48;;;;;;;10.00;9.10;;;;;;;25.14;52.61;99072.53;5053358;28;20188;-58
2022/07/10 06:55:16;;;;;;;8.80;8.00;;;;;;;24.84;53.04;99055.63;5067981;28;20433;-58
2022/07/10 06:57:43;;;;;;;9.50;8.70;;;;;;;24.94;52.83;99068.25;5071183;28;20654;-58
2022/07/10 07:00:12;;;;;;;8.90;8.30;;;;;;;25.12;53.26;99070.00;5068209;28;20225;-58
2022/07/10 07:02:39;;;;;;;10.17;9.17;;;;;;;25.23;52.72;99065.06;5072997;28;20196;-58
2022/07/10 07:05:07;;;;;;;8.90;8.20;;;;;;;25.33;52.44;99075.09;5072890;28;20196;-58
2022/07/10 07:07:34;;;;;;;8.60;7.90;;;;;;;25.20;52.48;99065.22;5072713;28;20594;-58
2022/07/10 07:10:01;;;;;;;9.45;8.60;;;;;;;25.35;52.79;99070.63;5072109;28;20438;-58
2022/07/10 07:12:28;;;;;;;9.40;8.13;;;;;;;25.36;51.83;99065.28;5073312;28;20677;-58
2022/07/10 07:14:55;;;;;;;8.83;8.13;;;;;;;25.48;52.19;99058.59;5071014;28;20198;-59
2022/07/10 07:17:25;;;;;;;9.13;8.37;;;;;;;25.45;51.70;99056.06;5072548;28;20289;-58
2022/07/10 07:25:23;;;;;;;8.87;8.17;;;;;;;25.85;50.95;99060.19;5072585;28;20266;-58
2022/07/10 07:27:50;;;;;;;8.67;7.87;;;;;;;25.74;50.81;99061.56;5072312;28;20250;-58
2022/07/10 07:30:17;;;;;;;8.70;8.10;;;;;;;25.64;50.93;99057.72;5072091;28;20202;-58
2022/07/10 07:32:47;;;;;;;9.03;8.33;;;;;;;25.60;51.84;99055.34;5071218;28;20195;-58
2022/07/10 07:35:15;;;;;;;8.73;8.13;;;;;;;25.66;51.85;99060.25;5070884;28;20290;-58
2022/07/10 07:37:44;;;;;;;9.18;8.32;;;;;;;25.48;52.25;99055.97;5070500;28;20437;-58
2022/07/10 07:40:13;;;;;;;9.23;8.53;;;;;;;25.52;52.66;99052.25;5071754;28;20237;-58
2022/07/10 07:42:40;;;;;;;9.03;8.33;;;;;;;25.51;52.09;99053.19;5072041;28;20570;-57
2022/07/10 07:45:09;;;;;;;11.57;8.93;;;;;;;25.42;52.30;99049.19;5071924;28;20203;-58
2022/07/10 07:47:45;;;;;;;10.30;9.33;;;;;;;25.21;52.75;99050.28;5071867;28;20218;-57
2022/07/10 07:50:13;;;;;;;9.33;8.63;;;;;;;25.20;52.41;99054.69;5071861;28;20199;-57
2022/07/10 07:52:40;;;;;;;9.47;8.67;;;;;;;25.31;51.67;99038.38;5070852;28;20666;-57
2022/07/10 07:55:08;;;;;;;9.77;8.90;;;;;;;25.68;51.34;99050.53;5071777;28;20613;-58
2022/07/10 07:57:35;;;;;;;9.73;8.90;;;;;;;26.11;50.45;99044.69;5072092;28;20192;-58
2022/07/10 08:00:02;;;;;;;9.03;8.27;;;;;;;26.37;49.20;99049.41;5071866;28;20199;-58
2022/07/10 08:02:28;;;;;;;9.03;8.23;;;;;;;26.71;48.89;99052.78;5071890;28;20632;-59
2022/07/10 08:04:57;;;;;;;8.90;8.20;;;;;;;26.77;48.08;99058.59;5071710;28;20188;-58
2022/07/10 08:07:23;;;;;;;8.73;7.93;;;;;;;26.78;47.73;99054.19;5071551;28;20700;-58
2022/07/10 08:09:51;;;;;;;8.88;8.27;;;;;;;26.76;48.13;99053.38;5071369;28;20208;-58
2022/07/10 08:12:18;;;;;;;8.70;8.00;;;;;;;27.01;47.42;99055.50;5071373;28;20563;-59
2022/07/10 08:14:45;;;;;;;9.47;8.67;;;;;;;26.85;47.85;99023.91;5071166;28;20199;-59
2022/07/10 08:17:12;;;;;;;9.07;8.30;;;;;;;27.07;47.68;99055.16;5071270;28;20199;-59
2022/07/10 08:19:38;;;;;;;9.18;8.48;;;;;;;26.82;47.15;99056.56;5071266;28;20574;-57
2022/07/10 08:22:07;;;;;;;9.20;8.43;;;;;;;26.74;47.52;99050.00;5070918;28;20445;-58
2022/07/10 08:24:34;;;;;;;8.90;8.20;;;;;;;26.76;47.44;99048.97;5071397;28;20195;-58
2022/07/10 08:27:01;;;;;;;9.15;8.25;;;;;;;26.77;47.44;99053.31;5071213;28;20210;-58
2022/07/10 08:29:28;;;;;;;8.80;7.67;;;;;;;26.81;47.67;99054.84;5070704;28;20230;-57
2022/07/10 08:31:54;;;;;;;10.55;8.63;;;;;;;26.92;47.45;99048.97;5070896;28;20254;-57
2022/07/10 08:34:21;;;;;;;8.23;7.53;;;;;;;26.84;46.51;99056.47;5070875;28;20570;-57
2022/07/10 08:36:48;;;;;;;8.43;7.77;;;;;;;26.86;47.89;99052.81;5070577;28;20195;-58
2022/07/10 08:39:20;;;;;;;8.27;7.60;;;;;;;26.81;46.66;99061.94;5070232;28;20440;-58
2022/07/10 08:41:50;;;;;;;7.50;7.00;;;;;;;26.89;46.26;99067.63;5070882;28;20214;-58
2022/07/10 08:44:17;;;;;;;10.07;7.55;;;;;;;26.81;46.89;99064.56;5070524;28;20855;-58
2022/07/10 08:46:44;;;;;;;7.90;7.30;;;;;;;26.75;46.13;99072.78;5070661;28;20222;-58
2022/07/10 08:49:13;;;;;;;10.00;7.45;;;;;;;26.69;46.47;99065.22;5070241;28;20220;-58
2022/07/10 08:51:42;;;;;;;7.77;7.17;;;;;;;26.78;46.20;99062.09;5070598;28;20202;-59
2022/07/10 08:54:09;;;;;;;7.72;7.13;;;;;;;26.79;47.08;99064.66;5069982;28;20221;-58
2022/07/10 08:56:38;;;;;;;8.73;8.02;;;;;;;26.73;47.98;99061.47;5070410;28;20240;-59
2022/07/10 08:59:05;;;;;;;8.90;8.20;;;;;;;26.69;48.41;99065.22;5070288;28;20195;-58
2022/07/10 09:01:32;;;;;;;9.37;8.60;;;;;;;26.70;47.21;99066.94;5069911;28;20639;-58
2022/07/10 09:03:59;;;;;;;7.88;7.28;;;;;;;26.74;46.42;99071.06;5069575;28;20302;-58
2022/07/10 09:06:28;;;;;;;8.57;7.90;;;;;;;26.60;46.84;99071.00;5070200;28;20192;-58
2022/07/10 09:09:04;;;;;;;9.13;8.38;;;;;;;26.64;46.93;99073.41;5069083;28;20501;-58
2022/07/10 09:11:32;;;;;;;10.33;8.37;;;;;;;26.62;47.15;99069.97;5070174;28;20199;-58
2022/07/10 09:14:03;;;;;;;9.10;8.20;;;;;;;26.59;46.35;99072.78;5069982;28;20257;-57
2022/07/10 09:16:32;;;;;;;9.07;8.30;;;;;;;26.61;47.44;99073.56;5069691;28;20191;-58
2022/07/10 09:19:16;;;;;;;9.37;8.67;;;;;;;26.48;48.02;99069.88;5069948;28;20377;-58
2022/07/10 09:21:44;;;;;;;9.00;8.30;;;;;;;26.44;49.25;99080.69;5069685;28;20705;-58
2022/07/10 09:24:11;;;;;;;10.10;9.30;;;;;;;26.09;49.10;99024.63;5069782;28;20231;-58
2022/07/10 09:26:38;;;;;;;9.63;8.83;;;;;;;26.34;49.01;99070.63;5069818;28;20199;-58
2022/07/10 09:29:11;;;;;;;9.73;8.70;;;;;;;26.38;49.91;99082.72;5069946;28;20279;-58
2022/07/10 09:31:51;;;;;;;10.93;9.93;;;;;;;26.31;49.18;99081.38;5069603;28;20200;-58
2022/07/10 09:34:18;;;;;;;9.70;9.00;;;;;;;26.29;48.98;99075.31;5069933;28;20274;-58
2022/07/10 09:36:45;;;;;;;10.10;9.30;;;;;;;26.35;49.61;99079.41;5069854;28;20192;-58
2022/07/10 09:39:12;;;;;;;9.32;8.63;;;;;;;26.35;50.13;99077.63;5069528;28;20192;-58
2022/07/10 09:41:39;;;;;;;9.67;8.93;;;;;;;26.31;49.50;99083.16;5069469;28;20677;-58
2022/07/10 09:44:08;;;;;;;9.60;8.80;;;;;;;26.27;49.07;99082.47;5069539;28;20202;-58
2022/07/10 09:46:38;;;;;;;9.47;8.67;;;;;;;26.29;49.31;99082.34;5069810;28;20192;-58
2022/07/10 09:49:07;;;;;;;9.83;9.03;;;;;;;26.29;49.03;99083.22;5069538;28;20221;-58
2022/07/10 09:51:36;;;;;;;9.97;9.17;;;;;;;26.26;49.61;99075.47;5069321;28;20662;-58
2022/07/10 09:54:04;;;;;;;9.30;8.53;;;;;;;26.33;48.97;99078.63;5069255;28;20720;-58
2022/07/10 09:56:40;;;;;;;10.27;9.47;;;;;;;26.36;49.44;99079.34;5069394;28;20442;-58
2022/07/10 09:59:10;;;;;;;9.80;9.00;;;;;;;26.23;49.55;99073.00;5069670;28;20688;-58
2022/07/10 10:01:45;;;;;;;10.43;9.53;;;;;;;26.36;49.90;99078.47;5069331;28;20183;-58
2022/07/10 10:04:12;;;;;;;10.40;9.40;;;;;;;26.45;48.95;99085.03;5069495;28;20244;-57
2022/07/10 10:06:41;;;;;;;11.40;8.90;;;;;;;26.43;48.10;99071.06;5069421;28;20180;-57
2022/07/10 10:09:13;;;;;;;10.37;8.80;;;;;;;26.33;47.82;99057.56;5069528;28;20219;-57
2022/07/10 10:11:42;;;;;;;9.35;8.65;;;;;;;26.52;47.71;99074.06;5068521;28;20429;-58
2022/07/10 10:14:09;;;;;;;9.50;8.70;;;;;;;26.72;47.28;99079.09;5069739;28;20249;-58
2022/07/10 10:16:36;;;;;;;9.10;8.40;;;;;;;26.78;47.38;99072.66;5075382;28;20670;-58
2022/07/10 10:21:55;;;;;;;8.40;7.77;;;;;;;27.14;46.79;99064.44;5075866;28;20194;-58
2022/07/10 10:24:23;;;;;;;9.60;8.70;;;;;;;27.25;45.74;99065.47;5075783;28;20792;-58
2022/07/10 10:26:50;;;;;;;9.65;8.90;;;;;;;27.35;46.07;99061.38;5075813;28;20187;-58
2022/07/10 10:29:18;;;;;;;8.73;7.80;;;;;;;27.36;44.70;99065.69;5075758;28;20219;-57
2022/07/10 10:31:44;;;;;;;8.15;7.55;;;;;;;27.61;45.15;99064.31;5075914;28;20203;-58
2022/07/10 10:34:16;;;;;;;8.27;7.60;;;;;;;27.70;44.03;99061.09;5076037;28;20192;-58
2022/07/10 10:36:49;;;;;;;8.10;7.50;;;;;;;27.82;44.60;99057.72;5075846;28;20203;-58
2022/07/10 10:39:18;;;;;;;8.57;7.78;;;;;;;27.97;43.60;99048.84;5075808;28;20187;-57
2022/07/10 10:41:53;;;;;;;8.13;7.53;;;;;;;28.21;42.50;99051.81;5075067;28;20434;-58
2022/07/10 10:44:31;;;;;;;8.02;7.32;;;;;;;28.49;41.85;99041.16;5075882;28;20245;-58
2022/07/10 10:47:06;;;;;;;7.47;6.88;;;;;;;28.62;40.96;99032.38;5075925;28;20187;-58
2022/07/10 10:49:52;;;;;;;8.38;7.68;;;;;;;28.75;40.84;99037.75;5075668;28;20693;-57
2022/07/10 10:52:21;;;;;;;7.30;6.72;;;;;;;28.80;40.76;99034.78;5075772;28;20210;-58
2022/07/10 10:55:12;;;;;;;7.30;6.35;;;;;;;28.78;38.84;99018.16;5075694;28;20192;-58
2022/07/10 10:57:47;;;;;;;7.60;6.65;;;;;;;28.88;40.14;99028.03;5075942;28;20688;-58
2022/07/10 11:00:32;;;;;;;7.40;6.72;;;;;;;28.86;40.48;99029.09;5075599;28;20191;-58
2022/07/10 11:03:23;;;;;;;7.68;7.07;;;;;;;29.06;39.41;99026.00;5075926;28;20195;-58
2022/07/10 11:05:52;;;;;;;9.18;8.40;;;;;;;28.86;38.55;99021.16;5075521;28;20207;-58
2022/07/10 11:08:40;;;;;;;8.80;7.95;;;;;;;28.59;39.10;98995.56;5075690;28;20236;-58
2022/07/10 11:11:39;;;;;;;7.25;6.65;;;;;;;28.60;38.51;99020.16;5075914;28;20249;-58
2022/07/10 11:14:09;;;;;;;8.15;7.20;;;;;;;28.83;39.15;99016.91;5075493;28;20191;-58
2022/07/10 11:16:35;;;;;;;7.93;7.13;;;;;;;28.91;38.41;99000.53;5075514;28;20195;-58
2022/07/10 11:19:04;;;;;;;7.10;6.60;;;;;;;28.89;38.07;99000.66;5075570;28;20187;-58
2022/07/10 11:21:46;;;;;;;6.88;6.20;;;;;;;28.68;38.40;98997.59;5075445;28;20287;-58
2022/07/10 11:24:28;;;;;;;7.30;6.80;;;;;;;28.58;38.26;98993.84;5075206;28;20284;-58
2022/07/10 11:27:03;;;;;;;7.20;6.60;;;;;;;28.73;37.66;98994.69;5073443;28;20920;-58
2022/07/10 11:29:37;;;;;;;7.18;6.57;;;;;;;29.01;37.12;98997.19;5072029;28;20219;-58
2022/07/10 11:32:06;;;;;;;8.15;6.13;;;;;;;29.29;36.44;98988.25;5072299;28;20198;-64
2022/07/10 11:34:36;;;;;;;7.05;6.35;;;;;;;29.38;36.76;98992.09;5072306;28;20198;-58
2022/07/10 11:37:05;;;;;;;6.53;6.03;;;;;;;28.94;36.56;98985.31;5071949;28;20199;-58
2022/07/10 11:39:31;;;;;;;6.57;6.07;;;;;;;29.01;37.14;98986.59;5071787;28;20188;-58
2022/07/10 11:41:58;;;;;;;6.15;5.75;;;;;;;29.23;36.12;98997.47;5071921;28;20317;-58
2022/07/10 11:44:27;;;;;;;6.88;6.35;;;;;;;29.29;34.97;98980.31;5070855;28;20503;-58
2022/07/10 11:46:55;;;;;;;5.85;5.45;;;;;;;28.95;35.19;98988.81;5072248;28;20195;-58
2022/07/10 11:49:22;;;;;;;6.68;5.30;;;;;;;28.47;35.10;98976.97;5071975;28;21161;-58